Time;durP1;ratioP1;P1;durP2;ratioP2;P2;SDS_P1;SDS_P2;PMS_P1;PMS_P2;Temp;Humidity;BMP_temperature;BMP_pressure;BME280_temperature;BME280_humidity;BME280_pressure;Samples;Min_cycle;Max_cycle;Signal;HPM_P1;HPM_P2
2022/08/24 00:00:23;;;;;;;;;;;12.40;99.90;;;;;;5104021;27;19912;-57
2022/08/24 00:03:06;;;;;;;;;;;12.40;99.90;;;;;;5124726;27;19918;-57
2022/08/24 00:05:46;;;;;;;;;;;12.30;99.90;;;;;;5125070;27;19920;-57
2022/08/24 00:08:25;;;;;;;;;;;12.30;99.90;;;;;;5103270;27;19961;-56
2022/08/24 00:11:06;;;;;;;;;;;12.30;99.90;;;;;;5124666;27;19912;-57
2022/08/24 00:13:47;;;;;;;;;;;12.30;99.90;;;;;;5124998;27;19911;-57
2022/08/24 00:16:28;;;;;;;;;;;12.30;99.90;;;;;;5084136;28;19917;-57
2022/08/24 00:19:09;;;;;;;;;;;12.30;99.90;;;;;;5124325;27;19922;-57
2022/08/24 00:21:50;;;;;;;;;;;12.30;99.90;;;;;;5125009;27;19919;-56
2022/08/24 00:24:31;;;;;;;;;;;12.20;99.90;;;;;;5125342;27;19912;-56
2022/08/24 00:27:12;;;;;;;;;;;12.20;99.90;;;;;;5104707;27;19916;-57
2022/08/24 00:29:52;;;;;;;;;;;12.20;99.90;;;;;;5124619;27;19912;-56
2022/08/24 00:32:32;;;;;;;;;;;12.20;99.90;;;;;;5104725;27;19926;-57
2022/08/24 00:35:12;;;;;;;;;;;12.20;99.90;;;;;;5105222;27;19938;-57
2022/08/24 00:37:53;;;;;;;;;;;12.10;99.90;;;;;;5104955;27;19918;-56
2022/08/24 00:40:35;;;;;;;;;;;12.10;99.90;;;;;;5124496;27;19922;-57
2022/08/24 00:43:18;;;;;;;;;;;12.00;99.90;;;;;;5104736;27;20172;-57
2022/08/24 00:46:03;;;;;;;;;;;12.00;99.90;;;;;;5125745;27;19918;-56
2022/08/24 00:48:45;;;;;;;;;;;11.90;99.90;;;;;;5100434;27;20292;-57
2022/08/24 00:51:27;;;;;;;;;;;11.90;99.90;;;;;;5125735;27;19922;-57
2022/08/24 00:54:07;;;;;;;;;;;11.90;99.90;;;;;;5105019;27;19930;-57
2022/08/24 00:56:50;;;;;;;;;;;11.80;99.90;;;;;;5124844;27;19925;-57
2022/08/24 00:59:31;;;;;;;;;;;11.80;99.90;;;;;;5123787;27;19915;-57
2022/08/24 01:02:20;;;;;;;;;;;11.80;99.90;;;;;;5125188;27;19918;-56
2022/08/24 01:05:02;;;;;;;;;;;11.80;99.90;;;;;;5120947;27;19918;-57
2022/08/24 01:07:43;;;;;;;;;;;11.80;99.90;;;;;;5124881;27;19918;-57
2022/08/24 01:10:26;;;;;;;;;;;11.80;99.90;;;;;;5124784;27;19912;-57
2022/08/24 01:13:07;;;;;;;;;;;11.70;99.90;;;;;;5104536;27;19919;-56
2022/08/24 01:15:49;;;;;;;;;;;11.80;99.90;;;;;;5157126;27;19911;-57
2022/08/24 01:21:30;;;;;;;;;;;11.70;99.90;;;;;;5124611;27;19922;-57
2022/08/24 01:24:12;;;;;;;;;;;11.70;99.90;;;;;;5104602;27;19912;-56
2022/08/24 01:26:52;;;;;;;;;;;11.70;99.90;;;;;;5125712;27;19916;-57
2022/08/24 01:29:32;;;;;;;;;;;11.80;99.90;;;;;;5112917;27;20284;-57
2022/08/24 01:32:12;;;;;;;;;;;11.80;99.90;;;;;;5125574;27;20276;-56
2022/08/24 01:34:53;;;;;;;;;;;11.70;99.90;;;;;;5125124;27;19926;-56
2022/08/24 01:37:34;;;;;;;;;;;11.70;99.90;;;;;;5125129;27;19915;-57
2022/08/24 01:40:15;;;;;;;;;;;11.80;99.90;;;;;;5124393;27;19915;-56
2022/08/24 01:42:56;;;;;;;;;;;11.80;99.90;;;;;;5125659;27;19933;-56
2022/08/24 01:45:38;;;;;;;;;;;11.80;99.90;;;;;;5124804;27;19926;-56
2022/08/24 01:48:19;;;;;;;;;;;11.70;99.90;;;;;;5153525;27;20303;-56
2022/08/24 01:50:59;;;;;;;;;;;11.60;99.90;;;;;;5124887;22;19929;-54
2022/08/24 01:53:40;;;;;;;;;;;11.50;99.90;;;;;;5125032;27;19916;-56
2022/08/24 01:56:20;;;;;;;;;;;11.50;99.90;;;;;;5125138;27;19912;-56
2022/08/24 01:59:02;;;;;;;;;;;11.40;99.90;;;;;;5103142;27;19922;-56
2022/08/24 02:01:44;;;;;;;;;;;11.40;99.90;;;;;;5125010;27;19912;-56
2022/08/24 02:04:24;;;;;;;;;;;11.40;99.90;;;;;;5130154;27;19912;-56
2022/08/24 02:07:08;;;;;;;;;;;11.40;99.90;;;;;;5125284;27;19925;-56
2022/08/24 02:09:49;;;;;;;;;;;11.30;99.90;;;;;;5145225;27;19925;-56
2022/08/24 02:12:30;;;;;;;;;;;11.30;99.90;;;;;;5125259;27;19912;-56
2022/08/24 02:15:12;;;;;;;;;;;11.40;99.90;;;;;;5109434;27;19920;-56
2022/08/24 02:17:53;;;;;;;;;;;11.50;99.90;;;;;;5104532;27;19975;-56
2022/08/24 02:20:35;;;;;;;;;;;11.50;99.90;;;;;;5148431;27;19934;-55
2022/08/24 02:23:16;;;;;;;;;;;11.40;99.90;;;;;;5113541;27;19912;-57
2022/08/24 02:25:56;;;;;;;;;;;11.40;99.90;;;;;;5119829;27;20284;-56
2022/08/24 02:28:38;;;;;;;;;;;11.50;99.90;;;;;;5115018;27;19912;-56
2022/08/24 02:31:19;;;;;;;;;;;11.40;99.90;;;;;;5124482;27;19912;-55
2022/08/24 02:34:00;;;;;;;;;;;11.30;99.90;;;;;;5125512;27;20084;-55
2022/08/24 02:36:40;;;;;;;;;;;11.30;99.90;;;;;;5104776;27;20377;-56
2022/08/24 02:39:20;;;;;;;;;;;11.20;99.90;;;;;;5121928;27;19912;-56
2022/08/24 02:42:03;;;;;;;;;;;11.30;99.90;;;;;;5125596;27;19928;-57
2022/08/24 02:44:42;;;;;;;;;;;11.30;99.90;;;;;;5125194;27;20357;-56
2022/08/24 02:47:22;;;;;;;;;;;11.30;99.90;;;;;;5125025;27;20379;-56
2022/08/24 02:50:04;;;;;;;;;;;11.30;99.90;;;;;;5115457;27;19912;-56
2022/08/24 02:52:46;;;;;;;;;;;11.30;99.90;;;;;;5125614;27;20055;-57
2022/08/24 02:55:27;;;;;;;;;;;11.30;99.90;;;;;;5125086;27;19912;-56
2022/08/24 02:58:07;;;;;;;;;;;11.30;99.90;;;;;;5145642;27;19911;-56
2022/08/24 03:00:48;;;;;;;;;;;11.30;99.90;;;;;;5109056;27;19919;-56
2022/08/24 03:03:31;;;;;;;;;;;11.30;99.90;;;;;;5123130;27;19911;-56
2022/08/24 03:06:12;;;;;;;;;;;11.20;99.90;;;;;;5124977;27;20381;-56
2022/08/24 03:08:52;;;;;;;;;;;11.20;99.90;;;;;;5103647;27;19912;-56
2022/08/24 03:11:32;;;;;;;;;;;11.20;99.90;;;;;;5124585;27;19916;-56
2022/08/24 03:14:14;;;;;;;;;;;11.20;99.90;;;;;;5125172;27;19915;-56
2022/08/24 03:16:55;;;;;;;;;;;11.20;99.90;;;;;;5104208;27;20327;-56
2022/08/24 03:19:35;;;;;;;;;;;11.10;99.90;;;;;;5124490;27;19934;-55
2022/08/24 03:22:14;;;;;;;;;;;11.00;99.90;;;;;;5125359;27;19911;-56
2022/08/24 03:24:54;;;;;;;;;;;11.10;99.90;;;;;;5125679;27;19922;-56
2022/08/24 03:27:34;;;;;;;;;;;11.10;99.90;;;;;;5124940;27;19919;-56
2022/08/24 03:30:15;;;;;;;;;;;11.20;99.90;;;;;;5124604;27;19922;-57
2022/08/24 03:32:55;;;;;;;;;;;11.00;99.90;;;;;;5125135;27;19918;-55
2022/08/24 03:35:36;;;;;;;;;;;11.10;99.90;;;;;;5124660;27;19923;-56
2022/08/24 03:38:17;;;;;;;;;;;11.10;99.90;;;;;;5125228;27;20558;-56
2022/08/24 03:40:58;;;;;;;;;;;11.10;99.90;;;;;;5124920;27;19918;-56
2022/08/24 03:43:48;;;;;;;;;;;11.00;99.90;;;;;;5124833;27;19916;-56
2022/08/24 03:46:34;;;;;;;;;;;11.00;99.90;;;;;;5125107;27;19942;-56
2022/08/24 03:49:15;;;;;;;;;;;11.00;99.90;;;;;;5122340;27;20392;-56
2022/08/24 03:51:57;;;;;;;;;;;10.90;99.90;;;;;;5125318;27;19918;-56
2022/08/24 03:54:38;;;;;;;;;;;10.90;99.90;;;;;;5125253;27;19918;-56
2022/08/24 03:57:18;;;;;;;;;;;10.90;99.90;;;;;;5124700;27;19912;-56
2022/08/24 03:59:58;;;;;;;;;;;11.00;99.90;;;;;;5104626;27;19953;-55
2022/08/24 04:02:39;;;;;;;;;;;11.00;99.90;;;;;;5124138;27;19915;-56
2022/08/24 04:05:21;;;;;;;;;;;10.90;99.90;;;;;;5104717;27;20438;-55
2022/08/24 04:08:00;;;;;;;;;;;10.90;99.90;;;;;;5124531;27;20438;-56
2022/08/24 04:10:43;;;;;;;;;;;11.00;99.90;;;;;;5159811;27;20367;-56
2022/08/24 04:13:23;;;;;;;;;;;11.00;99.90;;;;;;5104054;27;20395;-56
2022/08/24 04:16:05;;;;;;;;;;;11.00;99.90;;;;;;5117037;27;19912;-56
2022/08/24 04:18:46;;;;;;;;;;;11.00;99.90;;;;;;5124959;27;19919;-56
2022/08/24 04:21:29;;;;;;;;;;;11.00;99.90;;;;;;5165421;27;19915;-56
2022/08/24 04:24:11;;;;;;;;;;;11.00;99.90;;;;;;5104557;27;20323;-56
2022/08/24 04:26:50;;;;;;;;;;;11.10;99.90;;;;;;5103740;27;20352;-56
2022/08/24 04:29:30;;;;;;;;;;;11.10;99.90;;;;;;5123653;27;19911;-56
2022/08/24 04:32:10;;;;;;;;;;;11.10;99.90;;;;;;5124595;27;19912;-56
2022/08/24 04:34:50;;;;;;;;;;;11.20;99.90;;;;;;5124974;27;19916;-56
2022/08/24 04:37:30;;;;;;;;;;;11.30;99.90;;;;;;5124860;27;19911;-56
2022/08/24 04:40:10;;;;;;;;;;;11.40;99.90;;;;;;5104115;27;19912;-56
2022/08/24 04:42:57;;;;;;;;;;;11.50;99.90;;;;;;5125694;27;20494;-55
2022/08/24 04:45:41;;;;;;;;;;;11.70;99.90;;;;;;5105068;27;20084;-56
2022/08/24 04:48:22;;;;;;;;;;;11.60;99.90;;;;;;5124624;27;19926;-57
2022/08/24 04:51:02;;;;;;;;;;;11.70;99.90;;;;;;5104578;27;19911;-55
2022/08/24 04:53:43;;;;;;;;;;;11.80;99.90;;;;;;5104604;27;19926;-56
2022/08/24 04:56:36;;;;;;;;;;;11.90;99.90;;;;;;5104852;27;19922;-56
2022/08/24 04:59:18;;;;;;;;;;;12.00;99.90;;;;;;5124571;27;19912;-56
2022/08/24 05:01:59;;;;;;;;;;;12.10;99.90;;;;;;5125592;27;19922;-56
2022/08/24 05:04:39;;;;;;;;;;;12.20;99.90;;;;;;5124315;27;20317;-56
2022/08/24 05:07:20;;;;;;;;;;;12.40;99.90;;;;;;5124791;27;19916;-56
2022/08/24 05:10:00;;;;;;;;;;;12.50;99.90;;;;;;5116182;27;19920;-56
2022/08/24 05:12:42;;;;;;;;;;;12.60;99.90;;;;;;5125240;27;19916;-57
2022/08/24 05:15:23;;;;;;;;;;;12.70;99.90;;;;;;5125197;27;19946;-55
2022/08/24 05:18:03;;;;;;;;;;;12.60;99.90;;;;;;5124541;27;20323;-55
2022/08/24 05:20:44;;;;;;;;;;;12.60;99.90;;;;;;5109991;27;20424;-56
2022/08/24 05:23:24;;;;;;;;;;;12.60;99.90;;;;;;5125389;27;19945;-56
2022/08/24 05:26:08;;;;;;;;;;;12.60;99.90;;;;;;5125217;27;20316;-56
2022/08/24 05:28:49;;;;;;;;;;;12.70;99.90;;;;;;5124524;27;20510;-56
2022/08/24 05:31:31;;;;;;;;;;;12.90;99.90;;;;;;5142309;27;19915;-55
2022/08/24 05:34:15;;;;;;;;;;;13.10;99.90;;;;;;5104929;27;19912;-55
2022/08/24 05:36:55;;;;;;;;;;;13.20;99.90;;;;;;5105262;27;19926;-54
2022/08/24 05:39:49;;;;;;;;;;;13.30;99.90;;;;;;5117574;27;19916;-55
2022/08/24 05:42:29;;;;;;;;;;;13.40;99.90;;;;;;5103103;27;20328;-55
2022/08/24 05:45:09;;;;;;;;;;;13.50;99.90;;;;;;5124338;27;20388;-55
2022/08/24 05:47:50;;;;;;;;;;;13.60;99.90;;;;;;5124932;27;20089;-55
2022/08/24 05:50:54;;;;;;;;;;;13.80;99.90;;;;;;5145668;27;19918;-55
2022/08/24 05:53:35;;;;;;;;;;;13.80;99.90;;;;;;5125312;27;20387;-55
2022/08/24 05:56:17;;;;;;;;;;;13.90;99.90;;;;;;5125622;27;19911;-55
2022/08/24 05:58:58;;;;;;;;;;;14.00;99.90;;;;;;5124727;27;19918;-54
2022/08/24 06:01:38;;;;;;;;;;;14.20;99.90;;;;;;5125357;27;19918;-55
2022/08/24 06:04:19;;;;;;;;;;;14.40;99.90;;;;;;5103984;27;19926;-55
2022/08/24 06:07:01;;;;;;;;;;;14.50;99.90;;;;;;5125274;27;19926;-55
2022/08/24 06:09:42;;;;;;;;;;;14.50;99.90;;;;;;5118324;27;19913;-55
2022/08/24 06:12:22;;;;;;;;;;;14.60;99.90;;;;;;5104997;27;19912;-55
2022/08/24 06:15:02;;;;;;;;;;;14.70;99.90;;;;;;5125042;27;19918;-55
2022/08/24 06:17:41;;;;;;;;;;;14.90;99.90;;;;;;5125117;27;19912;-55
2022/08/24 06:20:23;;;;;;;;;;;15.00;99.90;;;;;;5113000;27;19912;-55
2022/08/24 06:23:03;;;;;;;;;;;15.10;99.90;;;;;;5104603;27;19919;-55
2022/08/24 06:28:46;;;;;;;;;;;15.30;99.90;;;;;;5124490;27;19918;-55
2022/08/24 06:31:27;;;;;;;;;;;15.60;99.90;;;;;;5121921;27;19915;-55
2022/08/24 06:34:08;;;;;;;;;;;15.90;99.90;;;;;;5105013;27;19930;-54
2022/08/24 06:36:47;;;;;;;;;;;16.20;99.90;;;;;;5124614;27;19927;-55
2022/08/24 06:39:27;;;;;;;;;;;16.80;99.90;;;;;;5124288;27;19912;-55
2022/08/24 06:42:09;;;;;;;;;;;17.30;99.90;;;;;;5125330;27;20299;-54
2022/08/24 06:44:55;;;;;;;;;;;17.80;99.90;;;;;;5125483;27;19957;-55
2022/08/24 06:47:36;;;;;;;;;;;18.40;99.90;;;;;;5124832;27;19916;-54
2022/08/24 06:50:16;;;;;;;;;;;18.80;99.90;;;;;;5124760;27;19916;-55
2022/08/24 06:52:56;;;;;;;;;;;19.20;99.90;;;;;;5125986;27;19952;-55
2022/08/24 06:55:37;;;;;;;;;;;19.70;99.90;;;;;;5125270;27;20373;-55
2022/08/24 06:58:18;;;;;;;;;;;19.90;99.90;;;;;;5125497;27;19912;-55
2022/08/24 07:00:58;;;;;;;;;;;20.20;99.90;;;;;;5124762;27;19912;-55
2022/08/24 07:03:39;;;;;;;;;;;20.50;99.90;;;;;;5122734;27;20277;-55
2022/08/24 07:06:38;;;;;;;;;;;20.70;99.90;;;;;;5124695;27;19916;-56
2022/08/24 07:09:18;;;;;;;;;;;21.00;99.90;;;;;;5122252;27;20299;-55
2022/08/24 07:11:59;;;;;;;;;;;21.10;99.90;;;;;;5123538;27;19919;-55
2022/08/24 07:14:39;;;;;;;;;;;21.30;99.90;;;;;;5125220;27;19912;-56
2022/08/24 07:17:20;;;;;;;;;;;21.70;99.90;;;;;;5124837;27;19912;-55
2022/08/24 07:20:02;;;;;;;;;;;21.80;99.90;;;;;;5145843;27;19933;-55
2022/08/24 07:23:09;;;;;;;;;;;21.80;99.90;;;;;;5125448;27;19912;-55
2022/08/24 07:25:50;;;;;;;;;;;21.80;99.90;;;;;;5122173;27;20291;-55
2022/08/24 07:28:34;;;;;;;;;;;21.50;99.90;;;;;;5124144;27;19924;-54
2022/08/24 07:31:15;;;;;;;;;;;21.10;99.90;;;;;;5125450;27;19912;-55
2022/08/24 07:34:05;;;;;;;;;;;20.50;99.90;;;;;;5125665;27;20091;-54
2022/08/24 07:36:45;;;;;;;;;;;20.10;99.90;;;;;;5125233;27;19923;-55
2022/08/24 07:39:27;;;;;;;;;;;19.80;99.90;;;;;;5120267;27;20300;-55
2022/08/24 07:42:07;;;;;;;;;;;19.70;99.90;;;;;;5124119;27;19912;-55
2022/08/24 07:44:48;;;;;;;;;;;19.70;99.90;;;;;;5125795;27;19926;-55
2022/08/24 07:47:29;;;;;;;;;;;19.80;99.90;;;;;;5124964;27;19916;-55
2022/08/24 07:50:10;;;;;;;;;;;19.80;99.90;;;;;;5090758;27;19916;-55
2022/08/24 07:52:51;;;;;;;;;;;19.90;99.90;;;;;;5126243;27;20491;-55
2022/08/24 07:55:32;;;;;;;;;;;20.10;99.90;;;;;;5129312;27;19911;-55
2022/08/24 07:58:13;;;;;;;;;;;20.20;99.90;;;;;;5123924;27;19912;-55
2022/08/24 08:00:53;;;;;;;;;;;20.30;99.90;;;;;;5131497;27;19911;-56
2022/08/24 08:03:33;;;;;;;;;;;20.30;99.90;;;;;;5088571;27;19912;-55
2022/08/24 08:06:13;;;;;;;;;;;20.40;99.90;;;;;;5102238;27;20024;-56
2022/08/24 08:08:53;;;;;;;;;;;20.40;99.90;;;;;;5125264;27;20373;-56
2022/08/24 08:11:34;;;;;;;;;;;20.60;99.90;;;;;;5083717;28;19920;-56
2022/08/24 08:14:16;;;;;;;;;;;20.70;99.90;;;;;;5099281;27;19928;-56
2022/08/24 08:16:55;;;;;;;;;;;20.80;99.90;;;;;;5105004;27;19926;-56
2022/08/24 08:19:35;;;;;;;;;;;20.90;99.90;;;;;;5118348;27;19924;-56
2022/08/24 08:25:54;;;;;;;;;;;21.10;99.90;;;;;;5135676;27;19918;-56
2022/08/24 08:28:44;;;;;;;;;;;21.30;99.90;;;;;;5125181;27;19912;-56
2022/08/24 08:31:24;;;;;;;;;;;21.40;99.90;;;;;;5125441;27;19912;-56
2022/08/24 08:34:04;;;;;;;;;;;21.50;99.90;;;;;;5125366;27;19918;-56
2022/08/24 08:36:45;;;;;;;;;;;21.50;99.90;;;;;;5124878;27;20389;-56
2022/08/24 08:39:27;;;;;;;;;;;21.70;99.90;;;;;;5121554;27;19912;-56
2022/08/24 08:42:23;;;;;;;;;;;21.90;99.90;;;;;;5124891;27;19934;-56
2022/08/24 08:45:15;;;;;;;;;;;22.00;99.90;;;;;;5125484;27;20311;-56
2022/08/24 08:48:18;;;;;;;;;;;22.10;99.90;;;;;;5125349;27;19918;-56
2022/08/24 08:51:10;;;;;;;;;;;22.20;99.90;;;;;;5124937;27;19916;-56
2022/08/24 08:54:04;;;;;;;;;;;22.40;99.90;;;;;;5125552;27;19912;-56
2022/08/24 08:56:52;;;;;;;;;;;22.60;99.90;;;;;;5124786;27;19928;-56
2022/08/24 08:59:39;;;;;;;;;;;22.90;99.90;;;;;;5118688;27;19916;-56
2022/08/24 09:02:28;;;;;;;;;;;23.00;99.90;;;;;;5125857;27;20396;-56
2022/08/24 09:05:39;;;;;;;;;;;23.00;99.90;;;;;;5125536;27;20400;-56
2022/08/24 09:08:24;;;;;;;;;;;23.10;99.90;;;;;;5125331;27;19912;-56
2022/08/24 09:11:07;;;;;;;;;;;23.20;99.90;;;;;;5106167;27;19922;-56
2022/08/24 09:13:58;;;;;;;;;;;23.30;99.90;;;;;;5125247;27;19920;-56
2022/08/24 09:16:59;;;;;;;;;;;23.60;99.90;;;;;;5104760;27;19912;-56
2022/08/24 09:19:50;;;;;;;;;;;23.80;99.90;;;;;;5104174;27;19916;-56
2022/08/24 09:22:34;;;;;;;;;;;24.20;99.90;;;;;;5124167;27;20377;-56
2022/08/24 09:25:23;;;;;;;;;;;24.60;99.90;;;;;;5125328;27;19916;-56
2022/08/24 09:28:14;;;;;;;;;;;25.00;99.90;;;;;;5145554;27;19925;-57
2022/08/24 09:31:04;;;;;;;;;;;25.40;99.90;;;;;;5123695;27;19919;-56
2022/08/24 09:33:50;;;;;;;;;;;25.60;99.90;;;;;;5125048;27;20589;-56
2022/08/24 09:36:39;;;;;;;;;;;25.70;99.90;;;;;;5125659;27;19911;-56
2022/08/24 09:39:28;;;;;;;;;;;25.90;99.90;;;;;;5121793;27;20288;-56
2022/08/24 09:42:25;;;;;;;;;;;26.50;99.90;;;;;;5125573;27;20395;-56
2022/08/24 09:45:13;;;;;;;;;;;26.80;99.90;;;;;;5104770;27;20337;-56
2022/08/24 09:47:58;;;;;;;;;;;26.70;99.90;;;;;;5126265;27;19925;-56
2022/08/24 09:50:58;;;;;;;;;;;26.30;99.90;;;;;;5124890;27;20298;-56
2022/08/24 09:53:54;;;;;;;;;;;26.10;99.90;;;;;;5125439;27;19918;-56
2022/08/24 09:56:45;;;;;;;;;;;25.90;99.90;;;;;;5125548;27;20742;-56
2022/08/24 09:59:36;;;;;;;;;;;25.80;99.90;;;;;;5154381;27;19911;-56
2022/08/24 10:02:27;;;;;;;;;;;26.30;99.90;;;;;;5125660;27;19918;-56
2022/08/24 10:05:12;;;;;;;;;;;26.90;99.90;;;;;;5125182;27;20422;-56
2022/08/24 10:07:58;;;;;;;;;;;27.40;97.80;;;;;;5125835;27;19918;-56
2022/08/24 10:10:44;;;;;;;;;;;27.40;96.70;;;;;;5124638;27;19912;-56
2022/08/24 10:13:27;;;;;;;;;;;27.50;94.10;;;;;;5156467;27;19917;-56
2022/08/24 10:16:23;;;;;;;;;;;27.80;91.90;;;;;;5125381;27;19920;-56
2022/08/24 10:19:08;;;;;;;;;;;28.20;88.50;;;;;;5125204;27;19912;-56
2022/08/24 10:21:53;;;;;;;;;;;28.60;85.30;;;;;;5125562;27;19918;-56
2022/08/24 10:24:42;;;;;;;;;;;28.40;79.20;;;;;;5105065;27;19912;-56
2022/08/24 10:27:31;;;;;;;;;;;28.60;77.80;;;;;;5125435;27;20576;-57
2022/08/24 10:30:33;;;;;;;;;;;28.50;76.50;;;;;;5124953;27;19918;-57
2022/08/24 10:33:19;;;;;;;;;;;28.50;76.20;;;;;;5125743;27;19912;-56
2022/08/24 10:36:10;;;;;;;;;;;28.80;73.60;;;;;;5125548;27;19912;-56
2022/08/24 10:43:32;;;;;;;;;;;28.70;71.30;;;;;;5125224;27;19912;-56
2022/08/24 10:45:21;;;;;;;;;;;28.50;72.60;;;;;;5104402;27;19926;-56
2022/08/24 10:48:13;;;;;;;;;;;28.50;70.40;;;;;;5124631;27;20408;-56
2022/08/24 10:50:56;;;;;;;;;;;28.40;71.80;;;;;;5124593;27;19922;-57
2022/08/24 10:53:38;;;;;;;;;;;28.50;70.10;;;;;;5117649;27;19942;-57
2022/08/24 10:56:20;;;;;;;;;;;28.90;68.60;;;;;;5123998;27;20321;-56
2022/08/24 10:59:06;;;;;;;;;;;29.30;66.70;;;;;;5140469;27;19920;-56
2022/08/24 11:02:01;;;;;;;;;;;29.60;64.60;;;;;;5103673;27;19930;-56
2022/08/24 11:04:43;;;;;;;;;;;30.10;61.60;;;;;;5124462;27;19916;-57
2022/08/24 11:07:24;;;;;;;;;;;30.30;60.30;;;;;;5124430;27;19934;-56
2022/08/24 11:10:05;;;;;;;;;;;30.10;59.80;;;;;;5103317;27;19912;-56
2022/08/24 11:12:45;;;;;;;;;;;29.60;60.30;;;;;;5092397;27;19946;-56
2022/08/24 11:15:26;;;;;;;;;;;29.30;61.10;;;;;;5124055;27;20394;-56
2022/08/24 11:18:06;;;;;;;;;;;28.90;60.80;;;;;;5125193;27;20277;-56
2022/08/24 11:20:47;;;;;;;;;;;28.70;62.60;;;;;;5123198;27;19920;-56
2022/08/24 11:23:34;;;;;;;;;;;28.50;64.90;;;;;;5139253;27;19920;-56
2022/08/24 11:26:21;;;;;;;;;;;28.30;65.80;;;;;;5084548;28;19912;-56
2022/08/24 11:29:04;;;;;;;;;;;28.20;65.90;;;;;;5103744;27;19922;-56
2022/08/24 11:31:48;;;;;;;;;;;28.00;66.80;;;;;;5103502;27;19913;-56
2022/08/24 11:34:36;;;;;;;;;;;28.10;67.50;;;;;;5125375;27;19918;-57
2022/08/24 11:37:22;;;;;;;;;;;28.00;66.80;;;;;;5125583;27;19922;-56
2022/08/24 11:40:03;;;;;;;;;;;28.20;66.70;;;;;;5124573;27;19915;-56
2022/08/24 11:42:48;;;;;;;;;;;28.30;67.40;;;;;;5124935;27;19916;-56
2022/08/24 11:45:30;;;;;;;;;;;28.30;65.70;;;;;;5125416;27;20385;-57
2022/08/24 11:48:19;;;;;;;;;;;28.40;65.50;;;;;;5125455;27;19911;-57
2022/08/24 11:51:03;;;;;;;;;;;28.60;65.00;;;;;;5124518;27;20020;-56
2022/08/24 11:53:47;;;;;;;;;;;28.50;64.60;;;;;;5084468;28;19916;-56
2022/08/24 11:56:34;;;;;;;;;;;28.30;66.90;;;;;;5104606;27;19946;-56
2022/08/24 11:59:18;;;;;;;;;;;27.90;65.60;;;;;;5123156;27;19918;-56
2022/08/24 12:02:00;;;;;;;;;;;27.50;67.40;;;;;;5105281;27;19916;-56
2022/08/24 12:04:46;;;;;;;;;;;27.00;74.30;;;;;;5105278;27;19926;-56
2022/08/24 12:07:33;;;;;;;;;;;26.50;74.60;;;;;;5162954;27;19919;-56
2022/08/24 12:10:19;;;;;;;;;;;26.00;78.20;;;;;;5114474;27;19918;-56
2022/08/24 12:13:04;;;;;;;;;;;25.60;84.10;;;;;;5125828;27;19929;-56
2022/08/24 12:15:47;;;;;;;;;;;25.20;93.30;;;;;;5125217;27;19916;-56
2022/08/24 12:18:29;;;;;;;;;;;24.90;99.90;;;;;;5124754;27;19916;-56
2022/08/24 12:21:12;;;;;;;;;;;24.60;99.90;;;;;;5124864;27;20429;-56
2022/08/24 12:23:56;;;;;;;;;;;24.30;99.90;;;;;;5105036;27;20353;-56
2022/08/24 12:26:40;;;;;;;;;;;24.10;99.90;;;;;;5125289;27;19918;-56
2022/08/24 12:29:25;;;;;;;;;;;24.00;99.90;;;;;;5124597;27;19918;-56
2022/08/24 12:32:09;;;;;;;;;;;24.00;99.90;;;;;;5124365;27;19912;-56
2022/08/24 12:34:51;;;;;;;;;;;24.10;99.90;;;;;;5125627;27;20258;-57
2022/08/24 12:37:34;;;;;;;;;;;24.40;99.90;;;;;;5084409;28;19919;-56
2022/08/24 12:40:21;;;;;;;;;;;24.60;99.90;;;;;;5114624;27;19916;-56
2022/08/24 12:43:04;;;;;;;;;;;24.90;99.90;;;;;;5125162;27;19926;-56
2022/08/24 12:45:45;;;;;;;;;;;25.20;99.90;;;;;;5125131;27;19915;-56
2022/08/24 12:48:28;;;;;;;;;;;25.70;99.90;;;;;;5126057;27;19920;-56
2022/08/24 12:51:18;;;;;;;;;;;26.00;99.90;;;;;;5124781;27;19954;-56
2022/08/24 12:54:24;;;;;;;;;;;26.00;99.90;;;;;;5105232;27;19918;-56
2022/08/24 12:57:12;;;;;;;;;;;25.90;99.90;;;;;;5125417;27;19927;-56
2022/08/24 12:59:53;;;;;;;;;;;25.90;99.90;;;;;;5117077;27;19916;-56
2022/08/24 13:02:36;;;;;;;;;;;25.80;99.90;;;;;;5084708;28;19912;-56
2022/08/24 13:05:18;;;;;;;;;;;25.80;99.90;;;;;;5105153;27;20194;-56
2022/08/24 13:08:09;;;;;;;;;;;25.70;99.90;;;;;;5125623;27;19911;-56
2022/08/24 13:10:53;;;;;;;;;;;25.80;99.90;;;;;;5145497;27;19919;-56
2022/08/24 13:13:45;;;;;;;;;;;25.60;99.90;;;;;;5125389;27;19912;-56
2022/08/24 13:16:41;;;;;;;;;;;25.50;99.90;;;;;;5125201;27;19925;-56
2022/08/24 13:19:38;;;;;;;;;;;25.70;99.90;;;;;;5124499;27;19911;-56
2022/08/24 13:22:41;;;;;;;;;;;25.90;99.90;;;;;;5125604;27;19922;-57
2022/08/24 13:25:42;;;;;;;;;;;26.30;99.90;;;;;;5125777;27;20130;-56
2022/08/24 13:28:32;;;;;;;;;;;26.70;99.90;;;;;;5125147;27;19912;-56
2022/08/24 13:31:22;;;;;;;;;;;27.40;99.90;;;;;;5124654;27;19912;-56
2022/08/24 13:34:16;;;;;;;;;;;27.90;99.90;;;;;;5125283;27;19912;-56
2022/08/24 13:37:10;;;;;;;;;;;28.20;96.50;;;;;;5125090;27;20402;-56
2022/08/24 13:40:04;;;;;;;;;;;28.50;92.10;;;;;;5124913;27;19912;-56
2022/08/24 13:43:01;;;;;;;;;;;28.60;89.30;;;;;;5084153;28;20293;-56
2022/08/24 13:45:45;;;;;;;;;;;28.50;86.70;;;;;;5084355;28;19918;-56
2022/08/24 13:48:31;;;;;;;;;;;28.50;86.80;;;;;;5104628;27;19916;-58
2022/08/24 13:51:20;;;;;;;;;;;28.50;86.60;;;;;;5125609;27;19918;-56
2022/08/24 13:54:06;;;;;;;;;;;28.60;84.10;;;;;;5104634;27;19930;-56
2022/08/24 13:56:51;;;;;;;;;;;28.60;84.30;;;;;;5104511;27;19920;-56
2022/08/24 13:59:38;;;;;;;;;;;28.70;83.10;;;;;;5120414;27;20123;-55
2022/08/24 14:02:26;;;;;;;;;;;28.90;82.70;;;;;;5125610;27;19918;-57
2022/08/24 14:05:13;;;;;;;;;;;28.90;79.70;;;;;;5125003;27;19911;-56
2022/08/24 14:07:56;;;;;;;;;;;28.90;78.50;;;;;;5105098;27;19916;-55
2022/08/24 14:10:54;;;;;;;;;;;28.80;78.20;;;;;;5108932;27;20378;-56
2022/08/24 14:13:41;;;;;;;;;;;28.70;80.70;;;;;;5125563;27;19919;-55
2022/08/24 14:19:46;;;;;;;;;;;28.40;81.80;;;;;;5124276;27;19926;-56
2022/08/24 14:22:32;;;;;;;;;;;28.50;82.80;;;;;;5117059;27;19911;-56
2022/08/24 14:25:18;;;;;;;;;;;28.60;80.30;;;;;;5122135;27;20385;-56
2022/08/24 14:28:12;;;;;;;;;;;28.50;77.70;;;;;;5119020;27;19912;-56
2022/08/24 14:31:06;;;;;;;;;;;28.20;79.50;;;;;;5136921;27;19919;-56
2022/08/24 14:33:50;;;;;;;;;;;28.00;81.60;;;;;;5101843;27;19965;-56
2022/08/24 14:36:42;;;;;;;;;;;27.90;80.80;;;;;;5102691;27;19912;-56
2022/08/24 14:39:29;;;;;;;;;;;27.80;82.80;;;;;;5121604;27;20395;-56
2022/08/24 14:42:15;;;;;;;;;;;27.50;84.50;;;;;;5119528;27;19912;-56
2022/08/24 14:45:02;;;;;;;;;;;27.20;85.60;;;;;;5113576;27;19919;-56
2022/08/24 14:47:48;;;;;;;;;;;27.20;85.80;;;;;;5118052;27;19922;-56
2022/08/24 14:50:30;;;;;;;;;;;27.20;88.60;;;;;;5103138;27;20332;-56
2022/08/24 14:53:19;;;;;;;;;;;27.50;86.30;;;;;;5119462;27;19918;-56
2022/08/24 14:56:07;;;;;;;;;;;27.50;84.30;;;;;;5105411;27;20438;-56
2022/08/24 14:58:51;;;;;;;;;;;27.40;86.60;;;;;;5083258;27;20412;-56
2022/08/24 15:01:40;;;;;;;;;;;27.40;84.50;;;;;;5123706;27;19912;-56
2022/08/24 15:04:34;;;;;;;;;;;27.80;86.90;;;;;;5122405;27;19918;-56
2022/08/24 15:07:21;;;;;;;;;;;28.30;83.20;;;;;;5099344;27;20425;-56
2022/08/24 15:10:09;;;;;;;;;;;28.80;78.00;;;;;;5123881;27;20426;-56
2022/08/24 15:12:52;;;;;;;;;;;28.90;76.00;;;;;;5118102;27;19915;-56
2022/08/24 15:15:35;;;;;;;;;;;28.90;76.20;;;;;;5124094;27;20422;-56
2022/08/24 15:18:24;;;;;;;;;;;28.40;77.00;;;;;;5119234;27;19916;-56
2022/08/24 15:21:08;;;;;;;;;;;27.90;80.00;;;;;;5106662;27;20288;-56
2022/08/24 15:23:56;;;;;;;;;;;27.40;82.20;;;;;;5104633;27;19926;-56
2022/08/24 15:26:49;;;;;;;;;;;27.20;88.60;;;;;;5123382;27;19912;-56
2022/08/24 15:29:31;;;;;;;;;;;27.00;88.80;;;;;;5124193;27;19919;-56
2022/08/24 15:32:13;;;;;;;;;;;27.00;90.90;;;;;;5118069;27;19915;-56
2022/08/24 15:34:56;;;;;;;;;;;26.80;92.10;;;;;;5139370;27;19915;-56
2022/08/24 15:37:38;;;;;;;;;;;26.70;92.10;;;;;;5118813;27;19912;-56
2022/08/24 15:40:25;;;;;;;;;;;26.60;91.70;;;;;;5123901;27;20327;-56
2022/08/24 15:43:06;;;;;;;;;;;26.40;93.00;;;;;;5118109;27;19922;-56
2022/08/24 15:45:47;;;;;;;;;;;26.60;91.80;;;;;;5120837;27;20323;-56
2022/08/24 15:48:27;;;;;;;;;;;26.50;91.30;;;;;;5119146;27;19912;-56
2022/08/24 15:51:07;;;;;;;;;;;26.60;91.20;;;;;;5065861;28;19916;-56
2022/08/24 15:53:47;;;;;;;;;;;26.60;90.40;;;;;;5119441;27;19915;-56
2022/08/24 15:56:30;;;;;;;;;;;26.80;91.70;;;;;;5124517;27;19916;-56
2022/08/24 15:59:13;;;;;;;;;;;26.70;92.10;;;;;;5145330;27;19912;-56
2022/08/24 16:05:10;;;;;;;;;;;28.20;81.50;;;;;;5140117;27;19933;-56
2022/08/24 16:08:10;;;;;;;;;;;28.40;78.30;;;;;;5128800;27;19915;-56
2022/08/24 16:10:51;;;;;;;;;;;27.80;81.90;;;;;;5123570;27;19957;-56
2022/08/24 16:13:32;;;;;;;;;;;27.50;86.10;;;;;;5117629;27;19980;-56